createdAt,value
2022-11-05T00:03:42.781Z,18.40
2022-11-05T00:08:57.609Z,18.31
2022-11-05T00:14:13.137Z,18.50
2022-11-05T00:19:09.832Z,18.57
2022-11-05T00:24:25.067Z,18.42
2022-11-05T00:29:22.368Z,18.27
2022-11-05T00:34:18.985Z,18.12
2022-11-05T00:39:18.660Z,18.11
2022-11-05T00:44:33.236Z,18.15
2022-11-05T00:49:30.858Z,18.23
2022-11-05T00:54:28.795Z,18.11
2022-11-05T00:59:25.350Z,18.18
2022-11-05T01:04:21.943Z,17.86
2022-11-05T01:09:21.568Z,17.70
2022-11-05T01:14:19.407Z,17.63
2022-11-05T01:19:17.057Z,17.63
2022-11-05T01:24:13.735Z,17.64
2022-11-05T01:29:11.237Z,17.49
2022-11-05T01:34:07.969Z,17.39
2022-11-05T01:39:04.579Z,17.31
2022-11-05T01:44:02.706Z,17.45
2022-11-05T01:49:04.863Z,17.54
2022-11-05T01:54:03.341Z,17.36
2022-11-05T01:59:06.501Z,17.25
2022-11-05T02:04:06.373Z,17.12
2022-11-05T02:09:05.044Z,16.97
2022-11-05T02:14:05.118Z,16.98
2022-11-05T02:19:07.720Z,17.00
2022-11-05T02:24:20.842Z,17.14
2022-11-05T02:29:32.461Z,17.32
2022-11-05T02:34:33.679Z,17.26
2022-11-05T02:39:36.577Z,17.25
2022-11-05T02:44:36.513Z,17.16
2022-11-05T02:49:41.537Z,17.24
2022-11-05T02:54:42.396Z,17.47
2022-11-05T02:59:39.046Z,17.64
2022-11-05T03:04:36.369Z,17.73
2022-11-05T03:10:00.020Z,17.79
2022-11-05T03:14:59.116Z,17.64
2022-11-05T03:20:00.239Z,17.80
2022-11-05T03:24:58.119Z,17.66
2022-11-05T03:29:58.254Z,17.57
2022-11-05T03:35:01.202Z,17.59
2022-11-05T03:40:00.271Z,17.60
2022-11-05T03:44:58.759Z,17.36
2022-11-05T03:50:01.633Z,17.39
2022-11-05T03:55:00.853Z,17.40
2022-11-05T03:59:57.581Z,16.88
2022-11-05T04:04:54.400Z,16.66
2022-11-05T04:10:12.848Z,16.78
2022-11-05T04:15:09.554Z,16.97
2022-11-05T04:20:24.761Z,17.01
2022-11-05T04:25:23.926Z,17.07
2022-11-05T04:30:25.012Z,17.18
2022-11-05T04:35:21.564Z,17.09
2022-11-05T04:40:18.278Z,16.94
2022-11-05T04:45:16.529Z,16.92
2022-11-05T04:50:15.875Z,16.82
2022-11-05T04:55:12.470Z,16.55
2022-11-05T05:00:10.365Z,16.54
2022-11-05T05:05:07.857Z,16.55
2022-11-05T05:10:06.965Z,16.60
2022-11-05T05:15:04.008Z,16.71
2022-11-05T05:20:18.502Z,16.45
2022-11-05T05:25:15.773Z,16.27
2022-11-05T05:30:12.733Z,16.18
2022-11-05T05:35:12.772Z,16.03
2022-11-05T05:40:12.000Z,15.75
2022-11-05T05:45:12.677Z,15.91
2022-11-05T05:50:09.561Z,16.07
2022-11-05T05:55:06.372Z,16.04
2022-11-05T06:00:03.791Z,16.20
2022-11-05T06:05:09.235Z,16.09
2022-11-05T06:10:06.517Z,16.06
2022-11-05T06:15:03.794Z,15.90
2022-11-05T06:20:00.338Z,15.94
2022-11-05T06:24:57.653Z,15.81
2022-11-05T06:29:55.943Z,15.88
2022-11-05T06:34:52.914Z,16.10
2022-11-05T06:39:52.319Z,16.25
2022-11-05T06:44:49.794Z,16.27
2022-11-05T06:49:46.716Z,16.48
2022-11-05T06:54:43.944Z,16.71
2022-11-05T06:59:43.706Z,16.51
2022-11-05T07:04:41.755Z,16.76
2022-11-05T07:09:44.758Z,16.84
2022-11-05T07:14:41.582Z,16.95
2022-11-05T07:19:39.649Z,16.90
2022-11-05T07:24:37.239Z,16.83
2022-11-05T07:29:34.102Z,16.87
2022-11-05T07:34:33.870Z,16.95
2022-11-05T07:39:30.647Z,15.71
2022-11-05T07:44:28.395Z,15.59
2022-11-05T07:49:25.517Z,15.76
2022-11-05T07:54:25.795Z,16.09
2022-11-05T07:59:22.417Z,15.94
2022-11-05T08:04:20.413Z,15.82
2022-11-05T08:09:17.164Z,16.09
2022-11-05T08:14:13.921Z,16.48
2022-11-05T08:19:12.614Z,15.77
2022-11-05T08:24:13.076Z,15.54
2022-11-05T08:29:09.874Z,15.58
2022-11-05T08:34:07.296Z,15.67
2022-11-05T08:39:03.978Z,15.96
2022-11-05T08:44:01.414Z,16.14
2022-11-05T08:48:58.157Z,16.40
2022-11-05T08:53:54.970Z,16.60
2022-11-05T08:58:51.776Z,16.42
2022-11-05T09:03:51.305Z,16.83
2022-11-05T09:08:51.396Z,16.95
2022-11-05T09:13:51.837Z,16.79
2022-11-05T09:18:49.688Z,16.93
2022-11-05T09:23:47.553Z,17.34
2022-11-05T09:28:44.384Z,17.18
2022-11-05T09:33:41.279Z,17.22
2022-11-05T09:38:38.029Z,17.42
2022-11-05T09:43:37.459Z,17.63
2022-11-05T09:48:35.148Z,17.69
2022-11-05T09:53:33.806Z,17.70
2022-11-05T09:58:37.885Z,17.58
2022-11-05T10:03:44.881Z,17.92
2022-11-05T10:08:43.832Z,17.74
2022-11-05T10:13:49.630Z,17.86
2022-11-05T10:18:48.646Z,17.82
2022-11-05T10:23:46.993Z,18.09
2022-11-05T10:28:43.945Z,18.08
2022-11-05T10:33:42.606Z,18.24
2022-11-05T10:38:43.252Z,18.41
2022-11-05T10:43:45.119Z,18.53
2022-11-05T10:48:47.951Z,18.74
2022-11-05T10:53:57.369Z,18.62
2022-11-05T10:58:59.358Z,18.57
2022-11-05T11:04:09.087Z,18.73
2022-11-05T11:09:19.119Z,18.86
2022-11-05T11:14:19.042Z,19.11
2022-11-05T11:19:29.191Z,19.27
2022-11-05T11:24:32.472Z,19.08
2022-11-05T11:29:39.020Z,19.29
2022-11-05T11:34:38.222Z,19.29
2022-11-05T11:39:38.065Z,19.38
2022-11-05T11:44:37.894Z,19.38
2022-11-05T11:49:40.266Z,19.50
2022-11-05T11:54:41.026Z,19.71
2022-11-05T12:05:03.493Z,19.68
2022-11-05T12:10:14.954Z,19.66
2022-11-05T12:15:24.161Z,19.70
2022-11-05T12:20:27.066Z,19.84
2022-11-05T12:25:29.009Z,19.78
2022-11-05T12:30:25.755Z,19.83
2022-11-05T12:35:30.329Z,19.93
2022-11-05T12:40:40.774Z,19.90
2022-11-05T12:45:45.253Z,19.97
2022-11-05T12:50:45.643Z,20.00
2022-11-05T12:55:48.795Z,20.01
2022-11-05T13:00:49.831Z,20.22
2022-11-05T13:05:49.110Z,20.22
2022-11-05T13:10:51.287Z,20.15
2022-11-05T13:15:50.674Z,20.14
2022-11-05T13:20:49.994Z,20.22
2022-11-05T13:25:50.175Z,20.35
2022-11-05T13:30:51.141Z,20.19
2022-11-05T13:36:11.251Z,20.27
2022-11-05T13:41:22.353Z,20.20
2022-11-05T13:46:25.365Z,20.18
2022-11-05T13:51:40.467Z,20.37
2022-11-05T13:56:55.439Z,20.24
2022-11-05T14:01:54.609Z,20.39
2022-11-05T14:06:51.821Z,20.37
2022-11-05T14:11:49.685Z,20.29
2022-11-05T14:16:50.706Z,20.25
2022-11-05T14:21:48.819Z,20.17
2022-11-05T14:27:06.285Z,20.26
2022-11-05T14:32:09.528Z,20.26
2022-11-05T14:37:23.968Z,20.08
2022-11-05T14:42:23.595Z,20.06
2022-11-05T14:47:21.783Z,20.07
2022-11-05T14:52:19.766Z,20.07
2022-11-05T14:57:36.741Z,20.04
2022-11-05T15:02:36.282Z,19.96
2022-11-05T15:07:35.389Z,19.98
2022-11-05T15:12:37.027Z,19.96
2022-11-05T15:17:38.210Z,19.90
2022-11-05T15:22:36.447Z,19.82
2022-11-05T15:27:41.964Z,19.80
2022-11-05T15:32:40.949Z,19.75
2022-11-05T15:37:50.358Z,19.75
2022-11-05T15:43:09.946Z,19.76
2022-11-05T15:48:14.067Z,19.72
2022-11-05T15:53:47.555Z,19.82
2022-11-05T15:58:47.492Z,19.86
2022-11-05T16:03:52.069Z,19.95
2022-11-05T16:08:50.042Z,19.82
2022-11-05T16:13:48.368Z,19.59
2022-11-05T16:18:45.374Z,19.68
2022-11-05T16:23:43.928Z,19.74
2022-11-05T16:28:44.114Z,19.57
2022-11-05T16:33:43.735Z,19.55
2022-11-05T16:38:40.295Z,19.16
2022-11-05T16:43:36.944Z,18.98
2022-11-05T16:48:37.333Z,18.85
2022-11-05T16:53:36.606Z,19.23
2022-11-05T16:58:35.647Z,18.97
2022-11-05T17:03:32.384Z,19.12
2022-11-05T17:08:29.844Z,18.51
2022-11-05T17:13:28.470Z,18.41
2022-11-05T17:18:25.865Z,18.56
2022-11-05T17:23:29.380Z,18.69
2022-11-05T17:28:28.506Z,18.83
2022-11-05T17:33:25.305Z,19.09
2022-11-05T17:38:23.367Z,19.00
2022-11-05T17:43:23.040Z,18.80
2022-11-05T17:48:21.775Z,18.58
2022-11-05T17:53:19.020Z,18.76
2022-11-05T17:58:15.560Z,18.73
2022-11-05T18:03:15.287Z,18.60
2022-11-05T18:08:13.055Z,18.60
2022-11-05T18:13:10.298Z,18.46
2022-11-05T18:18:07.348Z,18.45
2022-11-05T18:23:03.890Z,18.36
2022-11-05T18:28:01.463Z,18.33
2022-11-05T18:33:00.754Z,18.40
2022-11-05T18:37:57.406Z,18.17
2022-11-05T18:42:54.032Z,18.27
2022-11-05T18:47:52.621Z,18.28
2022-11-05T18:52:49.221Z,17.79
2022-11-05T18:57:45.930Z,17.97
2022-11-05T19:02:45.845Z,17.72
2022-11-05T19:07:43.783Z,17.50
2022-11-05T19:12:40.364Z,17.55
2022-11-05T19:17:37.061Z,17.65
2022-11-05T19:22:36.274Z,17.46
2022-11-05T19:27:35.363Z,17.39
2022-11-05T19:32:32.171Z,17.48
2022-11-05T19:37:28.820Z,17.46
2022-11-05T19:42:27.728Z,17.35
2022-11-05T19:47:25.231Z,16.87
2022-11-05T19:52:24.712Z,16.96
2022-11-05T19:57:21.486Z,16.98
2022-11-05T20:02:20.479Z,16.94
2022-11-05T20:07:20.774Z,17.06
2022-11-05T20:12:17.470Z,16.87
2022-11-05T20:17:14.328Z,17.00
2022-11-05T20:22:10.864Z,16.77
2022-11-05T20:27:08.604Z,16.79
2022-11-05T20:32:06.320Z,16.62
2022-11-05T20:37:06.672Z,16.51
2022-11-05T20:42:03.521Z,16.33
2022-11-05T20:47:01.076Z,16.25
2022-11-05T20:51:58.992Z,16.32
2022-11-05T20:56:56.014Z,16.45
2022-11-05T21:01:52.945Z,16.33
2022-11-05T21:06:50.379Z,16.15
2022-11-05T21:12:06.920Z,15.82
2022-11-05T21:17:05.550Z,15.64
2022-11-05T21:22:03.670Z,15.72
2022-11-05T21:27:00.381Z,15.56
2022-11-05T21:31:57.204Z,15.53
2022-11-05T21:36:55.222Z,15.51
2022-11-05T21:41:52.458Z,15.57
2022-11-05T21:46:49.279Z,15.40
2022-11-05T21:52:04.000Z,15.69
2022-11-05T21:57:19.253Z,15.73
2022-11-05T22:02:17.184Z,15.65
2022-11-05T22:07:28.755Z,15.36
2022-11-05T22:12:26.423Z,15.52
2022-11-05T22:17:23.594Z,15.27
2022-11-05T22:22:21.221Z,15.01
2022-11-05T22:27:21.849Z,15.35
2022-11-05T22:32:19.227Z,15.29
2022-11-05T22:37:15.872Z,15.44
2022-11-05T22:42:12.621Z,14.94
2022-11-05T22:47:09.271Z,14.80
2022-11-05T22:52:06.704Z,14.66
2022-11-05T22:57:04.688Z,14.75
2022-11-05T23:02:06.586Z,14.50
2022-11-05T23:07:27.822Z,14.41
2022-11-05T23:12:25.529Z,14.20
2022-11-05T23:17:40.394Z,14.41
2022-11-05T23:22:52.179Z,14.48
2022-11-05T23:27:49.868Z,14.26
2022-11-05T23:32:47.057Z,14.34
2022-11-05T23:38:05.745Z,14.60
2022-11-05T23:43:20.100Z,14.11
2022-11-05T23:48:21.807Z,14.18
2022-11-05T23:53:22.316Z,14.14
2022-11-05T23:58:20.433Z,14.49
